.
WxDataArchive / Data Records for 2014-09-10
2014-09-09 September 2014 2014-09-11

Data Records for Wednesday, 10 September 2014

Time	Temp	Chill	HIndex	Humid	Dewpt	 Wind 	HiWind	WindDir	Rain 	Barom
-----	----	-----	------	-----	-----	------	------	-------	-----	-----
00:00	65.6	65.6	65.6	84	60.6	0	0	---	0.00	29.938 
00:05	65.8	65.8	65.8	84	60.8	0	0	---	0.00	29.938 
00:10	65.8	65.8	65.8	84	60.8	0	0	---	0.00	29.938 
00:15	66.0	66.0	66.0	84	61.0	0	0	---	0.00	29.933 
00:20	66.0	66.0	66.0	84	61.0	0	0	---	0.00	29.933 
00:25	66.1	66.1	66.1	83	60.8	0	0	---	0.00	29.933 
00:30	66.1	66.1	66.1	83	60.8	0	1	22	0.00	29.927 
00:35	66.3	66.3	66.3	83	61.0	0	0	---	0.00	29.927 
00:40	66.4	66.4	66.4	83	61.1	0	0	---	0.00	29.927 
00:45	66.4	66.4	66.4	83	61.1	0	0	---	0.00	29.918 
00:50	66.6	66.6	66.6	83	61.3	0	0	---	0.00	29.918 
00:55	66.6	66.6	66.6	82	60.9	0	0	---	0.00	29.918 
01:00	66.4	66.4	66.4	82	60.7	0	0	---	0.00	29.913 
01:05	66.4	66.4	66.4	82	60.7	0	0	---	0.00	29.913 
01:10	66.4	66.4	66.4	82	60.7	0	0	---	0.00	29.913 
01:15	66.3	66.3	66.3	83	61.0	0	0	---	0.00	29.909 
01:20	66.1	66.1	66.1	83	60.8	0	0	---	0.00	29.909 
01:25	66.0	66.0	66.0	83	60.7	0	0	---	0.00	29.909 
01:30	65.8	65.8	65.8	84	60.8	0	0	---	0.00	29.908 
01:35	65.6	65.6	65.6	84	60.6	0	0	---	0.00	29.908 
01:40	65.6	65.6	65.6	84	60.6	0	0	---	0.00	29.908 
01:45	65.5	65.5	65.5	84	60.5	0	0	---	0.00	29.908 
01:50	65.5	65.5	65.5	84	60.5	0	0	---	0.00	29.908 
01:55	65.3	65.3	65.3	85	60.7	0	0	---	0.00	29.908 
02:00	65.3	65.3	65.3	85	60.7	0	0	---	0.00	29.905 
02:05	65.2	65.2	65.2	85	60.6	0	0	---	0.00	29.905 
02:10	65.2	65.2	65.2	85	60.6	0	0	---	0.00	29.905 
02:15	65.2	65.2	65.2	85	60.6	0	0	---	0.00	29.899 
02:20	65.3	65.3	65.3	85	60.7	0	0	---	0.00	29.899 
02:25	65.3	65.3	65.3	85	60.7	0	0	---	0.00	29.899 
02:30	65.3	65.3	65.3	85	60.7	0	0	---	0.00	29.890 
02:35	65.3	65.3	65.3	84	60.3	0	0	---	0.00	29.890 
02:40	65.3	65.3	65.3	84	60.3	0	0	---	0.00	29.890 
02:45	65.3	65.3	65.3	84	60.3	0	0	---	0.00	29.880 
02:50	65.3	65.3	65.3	84	60.3	0	0	---	0.00	29.880 
02:55	65.2	65.2	65.2	84	60.2	0	0	---	0.00	29.880 
03:00	65.2	65.2	65.2	84	60.2	0	0	---	0.00	29.878 
03:05	65.0	65.0	65.0	84	60.0	0	0	---	0.00	29.878 
03:10	65.0	65.0	65.0	84	60.0	0	0	---	0.00	29.878 
03:15	65.0	65.0	65.0	84	60.0	0	0	---	0.00	29.884 
03:20	64.8	64.8	64.8	84	59.8	0	0	---	0.00	29.884 
03:25	64.8	64.8	64.8	84	59.8	0	0	---	0.00	29.884 
03:30	64.8	64.8	64.8	84	59.8	0	0	---	0.00	29.881 
03:35	64.7	64.7	64.7	84	59.7	0	0	---	0.00	29.881 
03:40	64.7	64.7	64.7	84	59.7	0	0	---	0.00	29.881 
03:45	64.7	64.7	64.7	84	59.7	0	0	---	0.00	29.880 
03:50	64.7	64.7	64.7	84	59.7	0	0	---	0.00	29.880 
03:55	64.7	64.7	64.7	84	59.7	0	0	---	0.00	29.880 
04:00	64.7	64.7	64.7	84	59.7	0	1	22	0.00	29.865 
04:05	64.7	64.7	64.7	84	59.7	0	0	---	0.00	29.865 
04:10	64.5	64.5	64.5	84	59.6	0	0	---	0.00	29.865 
04:15	64.5	64.5	64.5	84	59.6	0	0	---	0.00	29.861 
04:20	64.5	64.5	64.5	83	59.2	0	0	---	0.00	29.861 
04:25	64.5	64.5	64.5	83	59.2	0	1	22	0.00	29.861 
04:30	64.7	64.7	64.7	82	59.1	0	0	---	0.00	29.864 
04:35	64.7	64.7	64.7	82	59.1	0	0	---	0.00	29.864 
04:40	64.7	64.7	64.7	82	59.1	0	0	---	0.00	29.864 
04:45	64.8	64.8	64.8	81	58.8	0	0	---	0.00	29.861 
04:50	64.8	64.8	64.8	81	58.8	0	1	22	0.00	29.861 
04:55	65.0	65.0	65.0	81	59.0	0	1	22	0.00	29.861 
05:00	65.0	65.0	65.0	81	59.0	0	1	22	0.00	29.849 
05:05	65.0	65.0	65.0	80	58.7	0	1	22	0.00	29.849 
05:10	65.0	65.0	65.0	80	58.7	0	1	22	0.00	29.849 
05:15	65.0	65.0	65.0	80	58.7	0	1	22	0.00	29.843 
05:20	65.0	65.0	65.0	80	58.7	0	1	22	0.00	29.843 
05:25	65.0	65.0	65.0	80	58.7	0	0	---	0.00	29.843 
05:30	65.0	65.0	65.0	80	58.7	0	0	---	0.00	29.843 
05:35	65.0	65.0	65.0	80	58.7	0	0	---	0.00	29.843 
05:40	65.0	65.0	65.0	79	58.3	0	1	22	0.00	29.843 
05:45	65.2	65.2	65.2	79	58.5	0	1	22	0.00	29.843 
05:50	65.2	65.2	65.2	79	58.5	0	1	22	0.00	29.843 
05:55	65.3	65.3	65.3	78	58.3	0	1	22	0.00	29.843 
06:00	65.3	65.3	65.3	78	58.3	0	2	22	0.00	29.839 
06:05	65.5	65.5	65.5	78	58.5	0	1	22	0.00	29.839 
06:10	65.5	65.5	65.5	78	58.5	0	1	45	0.00	29.839 
06:15	65.5	65.5	65.5	78	58.5	0	1	45	0.00	29.832 
06:20	65.5	65.5	65.5	78	58.5	0	1	45	0.00	29.832 
06:25	65.5	65.5	65.5	79	58.8	0	1	45	0.00	29.832 
06:30	65.5	65.5	65.5	79	58.8	0	1	45	0.00	29.831 
06:35	65.5	65.5	65.5	79	58.8	0	1	45	0.00	29.831 
06:40	65.5	65.5	65.5	80	59.2	0	1	45	0.00	29.831 
06:45	65.5	65.5	65.5	80	59.2	0	1	45	0.00	29.823 
06:50	65.5	65.5	65.5	80	59.2	0	1	45	0.00	29.823 
06:55	65.6	65.6	65.6	81	59.6	0	1	45	0.00	29.823 
07:00	65.6	65.6	65.6	81	59.6	0	1	45	0.00	29.820 
07:05	65.6	65.6	65.6	81	59.6	0	1	45	0.00	29.820 
07:10	65.6	65.6	65.6	81	59.6	0	1	45	0.00	29.820 
07:15	65.6	65.6	65.6	81	59.6	0	2	45	0.00	29.822 
07:20	65.6	65.6	65.6	82	59.9	0	1	45	0.00	29.822 
07:25	65.8	65.8	65.8	82	60.1	0	0	---	0.00	29.822 
07:30	65.8	65.8	65.8	82	60.1	0	0	---	0.00	29.820 
07:35	65.8	65.8	65.8	82	60.1	0	0	---	0.00	29.820 
07:40	65.8	65.8	65.8	82	60.1	0	1	45	0.00	29.820 
07:45	65.8	65.8	65.8	82	60.1	0	1	45	0.00	29.815 
07:50	66.0	66.0	66.0	82	60.3	0	1	45	0.00	29.815 
07:55	66.0	66.0	66.0	82	60.3	0	0	---	0.00	29.815 
08:00	66.0	66.0	66.0	83	60.7	0	1	45	0.00	29.802 
08:05	66.3	66.3	66.3	83	61.0	0	3	112	0.00	29.802 
08:10	66.8	66.8	66.8	82	61.1	0	1	112	0.00	29.802 
08:15	67.1	67.1	67.1	82	61.4	0	1	112	0.00	29.800 
08:20	67.4	67.4	67.4	81	61.4	0	1	112	0.00	29.800 
08:25	67.6	67.6	67.6	81	61.6	0	2	112	0.00	29.800 
08:30	67.8	67.8	67.8	81	61.7	0	1	135	0.00	29.792 
08:35	67.9	67.9	67.9	81	61.8	0	2	135	0.00	29.792 
08:40	67.9	67.9	67.9	81	61.8	0	2	135	0.00	29.792 
08:45	67.9	67.9	67.9	81	61.8	0	2	135	0.00	29.784 
08:50	68.1	68.1	68.1	81	62.0	0	1	135	0.00	29.784 
08:55	68.1	68.1	68.1	81	62.0	0	1	135	0.00	29.784 
09:00	68.1	68.1	68.1	81	62.0	0	1	135	0.00	29.778 
09:05	68.1	68.1	68.1	82	62.4	0	1	135	0.00	29.778 
09:10	68.1	68.1	68.1	82	62.4	0	1	135	0.00	29.778 
09:15	68.1	68.1	68.1	82	62.4	0	1	135	0.00	29.769 
09:20	68.1	68.1	68.1	82	62.4	0	1	135	0.00	29.769 
09:25	68.1	68.1	68.1	83	62.7	0	1	135	0.00	29.769 
09:30	68.3	68.3	68.3	84	63.3	0	1	135	0.00	29.769 
09:35	68.3	68.3	68.3	84	63.3	0	0	---	0.00	29.769 
09:40	68.1	68.1	68.1	85	63.4	0	0	---	0.01	29.769 
09:45	68.1	68.1	68.1	86	63.7	0	1	135	0.00	29.769 
09:50	68.3	68.3	68.3	87	64.3	0	2	135	0.03	29.769 
09:55	68.1	68.1	68.1	88	64.4	0	3	68	0.02	29.769 
10:00	68.1	68.1	68.1	89	64.7	0	2	315	0.01	29.768 
10:05	68.1	68.1	68.1	90	65.0	0	1	315	0.02	29.768 
10:10	68.1	68.1	68.1	90	65.0	0	1	315	0.01	29.768 
10:15	67.9	67.9	67.9	91	65.2	2	4	292	0.02	29.785 
10:20	67.8	67.8	67.8	91	65.1	1	4	270	0.13	29.785 
10:25	67.6	67.6	67.6	92	65.2	0	1	270	0.12	29.785 
10:30	67.6	67.6	67.6	92	65.2	0	1	270	0.08	29.761 
10:35	67.6	67.6	67.6	93	65.5	0	2	270	0.02	29.761 
10:40	67.8	67.8	67.8	93	65.7	0	1	292	0.01	29.761 
10:45	67.8	67.8	67.8	93	65.7	0	2	315	0.02	29.763 
10:50	67.8	67.8	67.8	93	65.7	0	4	180	0.04	29.763 
10:55	67.8	67.8	67.8	93	65.7	0	2	158	0.06	29.763 
11:00	67.8	67.8	67.8	94	66.0	0	3	135	0.05	29.751 
11:05	67.8	67.8	67.8	94	66.0	1	4	90	0.11	29.751 
11:10	67.8	67.8	67.8	94	66.0	0	2	112	0.05	29.751 
11:15	67.9	67.9	67.9	94	66.1	0	1	112	0.08	29.754 
11:20	67.9	67.9	67.9	94	66.1	0	1	112	0.02	29.754 
11:25	68.1	68.1	68.1	94	66.3	0	1	112	0.01	29.754 
11:30	68.1	68.1	68.1	95	66.6	0	5	90	0.02	29.741 
11:35	68.3	68.3	68.3	95	66.8	0	1	90	0.01	29.741 
11:40	68.3	68.3	68.3	95	66.8	1	3	90	0.01	29.741 
11:45	68.4	68.4	68.4	95	66.9	1	7	90	0.02	29.726 
11:50	68.6	68.6	68.6	95	67.1	1	4	22	0.01	29.726 
11:55	68.9	68.9	68.9	95	67.4	1	4	135	0.00	29.726 
12:00	69.1	69.1	69.1	95	67.6	1	6	45	0.01	29.708 
12:05	69.4	69.4	69.4	95	67.9	1	5	90	0.00	29.708 
12:10	69.8	69.8	69.8	95	68.3	1	6	112	0.00	29.708 
12:15	69.9	69.9	69.9	95	68.4	1	4	22	0.00	29.709 
12:20	70.3	70.3	70.3	95	68.8	0	3	0	0.00	29.709 
12:25	70.4	70.4	70.4	95	68.9	1	3	112	0.00	29.709 
12:30	70.6	70.6	70.6	95	69.1	0	2	112	0.00	29.704 
12:35	70.6	70.6	70.6	95	69.1	0	3	112	0.00	29.704 
12:40	70.8	70.8	70.8	95	69.3	1	4	112	0.00	29.704 
12:45	70.9	70.9	70.9	96	69.7	0	2	112	0.00	29.690 
12:50	71.3	71.3	71.3	96	70.1	1	3	90	0.00	29.690 
12:55	71.5	71.5	71.5	96	70.3	0	2	90	0.00	29.690 
13:00	71.6	71.6	71.6	95	70.1	0	4	90	0.01	29.687 
13:05	71.6	71.6	71.6	95	70.1	1	3	90	0.01	29.687 
13:10	71.8	71.8	71.8	95	70.3	1	4	90	0.01	29.687 
13:15	71.8	71.8	71.8	95	70.3	1	3	90	0.02	29.683 
13:20	72.0	72.0	72.0	96	70.8	0	2	90	0.02	29.683 
13:25	72.0	72.0	72.0	96	70.8	0	3	90	0.03	29.683 
13:30	72.0	72.0	72.0	95	70.5	0	4	90	0.03	29.672 
13:35	72.1	72.1	72.1	95	70.6	1	6	90	0.06	29.672 
13:40	72.1	72.1	72.1	96	70.9	0	3	315	0.06	29.672 
13:45	72.1	72.1	72.1	96	70.9	0	2	292	0.07	29.657 
13:50	72.3	72.3	72.3	96	71.1	1	4	0	0.01	29.657 
13:55	72.5	72.5	72.5	96	71.3	1	3	68	0.03	29.657 
14:00	72.5	72.5	72.5	96	71.3	1	5	68	0.05	29.651 
14:05	72.7	72.7	72.7	96	71.5	1	5	292	0.02	29.651 
14:10	72.8	72.8	72.8	96	71.6	1	4	68	0.02	29.651 
14:15	72.8	72.8	72.8	96	71.6	2	7	270	0.08	29.650 
14:20	72.8	72.8	72.8	96	71.6	0	3	270	0.04	29.650 
14:25	72.8	72.8	72.8	96	71.6	1	4	45	0.06	29.650 
14:30	72.8	72.8	72.8	96	71.6	1	5	68	0.08	29.639 
14:35	73.0	73.0	73.0	96	71.8	1	6	270	0.04	29.639 
14:40	72.8	72.8	72.8	96	71.6	1	5	315	0.00	29.639 
14:45	72.8	72.8	72.8	96	71.6	0	2	270	0.00	29.638 
14:50	73.0	73.0	73.0	96	71.8	0	2	270	0.00	29.638 
14:55	73.2	73.2	73.2	96	72.0	1	3	270	0.00	29.638 
15:00	73.3	73.3	73.3	96	72.1	1	4	248	0.00	29.637 
15:05	73.2	73.2	73.2	96	72.0	1	5	292	0.01	29.637 
15:10	73.2	73.2	73.2	96	72.0	1	5	270	0.00	29.637 
15:15	73.2	73.2	73.2	96	72.0	1	4	248	0.00	29.637 
15:20	73.2	73.2	73.2	96	72.0	0	3	248	0.01	29.637 
15:25	73.2	73.2	73.2	96	72.0	0	2	248	0.00	29.637 
15:30	73.2	73.2	73.2	96	72.0	0	4	248	0.00	29.633 
15:35	73.2	73.2	73.2	96	72.0	0	5	112	0.01	29.633 
15:40	73.2	73.2	73.2	96	72.0	1	5	270	0.00	29.633 
15:45	73.3	73.3	73.3	96	72.1	1	3	292	0.01	29.622 
15:50	73.3	73.3	73.3	96	72.1	0	3	292	0.00	29.622 
15:55	73.5	73.5	73.5	96	72.3	0	3	22	0.01	29.622 
16:00	73.5	73.5	73.5	96	72.3	1	3	270	0.00	29.621 
16:05	73.7	73.7	73.7	96	72.5	0	2	270	0.00	29.621 
16:10	73.7	73.7	73.7	96	72.5	1	3	270	0.01	29.621 
16:15	73.5	73.5	73.5	96	72.3	1	3	338	0.00	29.623 
16:20	73.5	73.5	73.5	96	72.3	0	2	0	0.00	29.623 
16:25	73.5	73.5	73.5	96	72.3	1	3	315	0.00	29.623 
16:30	73.5	73.5	73.5	96	72.3	0	1	292	0.01	29.618 
16:35	73.5	73.5	73.5	96	72.3	0	2	270	0.01	29.618 
16:40	73.5	73.5	73.5	96	72.3	1	3	270	0.02	29.618 
16:45	73.5	73.5	73.5	96	72.3	1	3	270	0.13	29.619 
16:50	73.3	73.3	73.3	96	72.1	2	5	270	0.02	29.619 
16:55	73.3	73.3	73.3	96	72.1	1	4	270	0.01	29.619 
17:00	73.2	73.2	73.2	96	72.0	1	5	270	0.00	29.610 
17:05	73.2	73.2	73.2	96	72.0	1	4	292	0.00	29.610 
17:10	73.0	73.0	73.0	96	71.8	1	6	292	0.00	29.610 
17:15	73.0	73.0	73.0	96	71.8	0	2	338	0.00	29.609 
17:20	73.0	73.0	73.0	96	71.8	0	2	338	0.00	29.609 
17:25	73.0	73.0	73.0	96	71.8	0	2	315	0.00	29.609 
17:30	73.0	73.0	73.0	96	71.8	0	1	315	0.00	29.608 
17:35	73.0	73.0	73.0	96	71.8	0	3	315	0.00	29.608 
17:40	73.2	73.2	73.2	96	72.0	0	3	315	0.00	29.608 
17:45	73.3	73.3	73.3	96	72.1	1	5	315	0.00	29.605 
17:50	73.3	73.3	73.3	96	72.1	0	3	270	0.00	29.605 
17:55	73.5	73.5	73.5	96	72.3	1	5	270	0.00	29.605 
18:00	73.7	73.7	73.7	96	72.5	2	9	292	0.00	29.607 
18:05	73.9	73.9	73.9	96	72.7	0	3	270	0.00	29.607 
18:10	74.0	74.0	74.0	95	72.5	0	3	292	0.00	29.607 
18:15	74.0	74.0	74.0	95	72.5	0	1	270	0.00	29.604 
18:20	74.0	74.0	74.0	95	72.5	0	4	270	0.00	29.604 
18:25	74.2	74.2	74.2	95	72.7	0	2	270	0.00	29.604 
18:30	74.2	74.2	74.2	95	72.7	0	2	270	0.00	29.598 
18:35	74.2	74.2	74.2	95	72.7	0	2	270	0.00	29.598 
18:40	74.2	74.2	74.2	95	72.7	0	4	270	0.00	29.598 
18:45	74.4	74.4	74.4	95	72.9	1	2	315	0.01	29.593 
18:50	74.4	74.4	74.4	95	72.9	0	2	315	0.02	29.593 
18:55	74.2	74.2	74.2	95	72.7	0	2	315	0.03	29.593 
19:00	74.2	74.2	74.2	95	72.7	0	2	270	0.10	29.602 
19:05	74.2	74.2	74.2	95	72.7	0	4	45	0.10	29.602 
19:10	74.2	74.2	74.2	95	72.7	0	1	22	0.15	29.602 
19:15	74.0	74.0	74.0	95	72.5	0	2	22	0.19	29.604 
19:20	74.0	74.0	74.0	95	72.5	0	1	22	0.02	29.604 
19:25	74.0	74.0	74.0	95	72.5	1	4	292	0.00	29.604 
19:30	74.0	74.0	74.0	95	72.5	1	3	292	0.00	29.604 
19:35	74.0	74.0	74.0	95	72.5	0	2	292	0.00	29.604 
19:40	74.0	74.0	74.0	95	72.5	0	1	292	0.00	29.604 
19:45	74.0	74.0	74.0	95	72.5	0	1	292	0.00	29.593 
19:50	73.9	73.9	73.9	95	72.4	0	4	292	0.00	29.593 
19:55	73.9	73.9	73.9	95	72.4	1	2	292	0.00	29.593 
20:00	73.9	73.9	73.9	96	72.7	1	4	292	0.00	29.608 
20:05	73.9	73.9	73.9	95	72.4	1	3	292	0.00	29.608 
20:10	73.9	73.9	73.9	95	72.4	0	3	292	0.00	29.608 
20:15	73.9	73.9	73.9	95	72.4	0	2	292	0.00	29.606 
20:20	73.7	73.7	73.7	95	72.2	0	1	292	0.00	29.606 
20:25	73.7	73.7	73.7	96	72.5	0	3	292	0.00	29.606 
20:30	73.7	73.7	73.7	96	72.5	0	1	292	0.00	29.603 
20:35	73.7	73.7	73.7	96	72.5	0	1	292	0.00	29.603 
20:40	73.7	73.7	73.7	96	72.5	0	1	292	0.00	29.603 
20:45	73.7	73.7	73.7	96	72.5	0	1	292	0.00	29.603 
20:50	73.7	73.7	73.7	96	72.5	0	1	292	0.00	29.603 
20:55	73.7	73.7	73.7	96	72.5	0	2	292	0.00	29.603 
21:00	73.7	73.7	73.7	96	72.5	0	3	292	0.00	29.611 
21:05	73.7	73.7	73.7	96	72.5	0	1	292	0.00	29.611 
21:10	73.7	73.7	73.7	96	72.5	0	1	292	0.00	29.611 
21:15	73.7	73.7	73.7	96	72.5	0	1	292	0.00	29.604 
21:20	73.7	73.7	73.7	96	72.5	0	2	292	0.01	29.604 
21:25	73.7	73.7	73.7	96	72.5	1	3	292	0.02	29.604 
21:30	73.7	73.7	73.7	96	72.5	0	2	292	0.00	29.612 
21:35	73.7	73.7	73.7	96	72.5	1	3	315	0.00	29.612 
21:40	73.7	73.7	73.7	96	72.5	0	1	315	0.00	29.612 
21:45	73.7	73.7	73.7	96	72.5	0	2	315	0.00	29.618 
21:50	73.7	73.7	73.7	96	72.5	1	4	270	0.00	29.618 
21:55	73.5	73.5	73.5	96	72.3	0	2	270	0.00	29.618 
22:00	73.5	73.5	73.5	96	72.3	0	1	270	0.00	29.621 
22:05	73.3	73.3	73.3	96	72.1	0	3	270	0.00	29.621 
22:10	73.3	73.3	73.3	96	72.1	0	2	270	0.00	29.621 
22:15	73.2	73.2	73.2	96	72.0	0	1	270	0.00	29.624 
22:20	73.2	73.2	73.2	96	72.0	0	3	270	0.00	29.624 
22:25	73.0	73.0	73.0	96	71.8	0	2	270	0.00	29.624 
22:30	73.0	73.0	73.0	95	71.5	0	3	270	0.00	29.621 
22:35	72.8	72.8	72.8	95	71.3	0	4	292	0.00	29.621 
22:40	72.8	72.8	72.8	95	71.3	0	2	292	0.00	29.621 
22:45	72.7	72.7	72.7	95	71.2	0	2	292	0.00	29.635 
22:50	72.7	72.7	72.7	95	71.2	1	3	292	0.00	29.635 
22:55	72.7	72.7	72.7	95	71.2	1	4	292	0.00	29.635 
23:00	72.5	72.5	72.5	95	71.0	2	5	270	0.00	29.641 
23:05	72.1	72.1	72.1	95	70.6	2	6	270	0.00	29.641 
23:10	72.1	72.1	72.1	95	70.6	1	3	270	0.00	29.641 
23:15	72.0	72.0	72.0	95	70.5	1	3	270	0.00	29.653 
23:20	71.8	71.8	71.8	94	70.0	2	5	270	0.00	29.653 
23:25	71.6	71.6	71.6	94	69.8	1	4	270	0.00	29.653 
23:30	71.6	71.6	71.6	93	69.5	1	3	270	0.00	29.659 
23:35	71.5	71.5	71.5	93	69.4	1	5	270	0.00	29.659 
23:40	71.5	71.5	71.5	92	69.0	1	3	270	0.00	29.659 
23:45	71.3	71.3	71.3	92	68.8	1	4	270	0.00	29.663 
23:50	71.3	71.3	71.3	91	68.5	1	4	270	0.00	29.663 
23:55	71.3	71.3	71.3	90	68.2	2	9	270	0.00	29.663 

CoCoRaHS
IN-AL-39
A2 Web Hosting
Creative Commons License
GoDaddy
search engine by freefind advanced

loaded 2018-11-15 13:40:52 • last modified 2010-11-18 10:43:29
Privacy PolicyDisclaimer
• wx.awcolley.com is powered by PmWiki v.2002016 •
• all content (unless otherwise noted) © 2018 A W Colley